Big Sky, MT

2:31 PM MST on December 23, 2015 (GMT -0700)
Bear Creek | | Change Station
CLOSE
Current Station
Personal Weather Station
Location: Cameron, MT
Elevation: 6150 ft
Nearby Weather Stations

Elev 6150 ft 45.17 °N, 111.56 °W | Updated 59 minutes ago

Snow
Snow
22.1 °F
Feels Like 22 °F
N
0.0
Wind Variable Wind from SW
Gusts 1.0 mph

Today
High -- | Low -- °F
--% Chance of Precip.
Yesterday
High -- | Low -- °F
Precip. -- in
Pressure 29.47 in
Visibility 2.0 miles
Clouds Mostly Cloudy 3000 ft
Overcast 3600 ft
Windchill 22 °F
Dew Point 13 °F
Humidity 66%
Rainfall 0.00 in
Snow Depth Not available.
8:02 AM 4:46 PM
Waxing Gibbous, 97% visible
SPECI KBZN 232108Z 00000KT 2SM -SN BKN030 OVC036 M08/M11 A2947 RMK AO2 P0000 T10781106
Pressure 29.47 in
Visibility 2.0 miles
Clouds Mostly Cloudy 3000 ft
Overcast 3600 ft
Windchill 22 °F
Dew Point 13 °F
Humidity 66%
Rainfall 0.00 in
Snow Depth Not available.
8:02 AM 4:46 PM
Waxing Gibbous, 97% visible
SPECI KBZN 232108Z 00000KT 2SM -SN BKN030 OVC036 M08/M11 A2947 RMK AO2 P0000 T10781106

10-Day Weather Forecast

×

Almanac

Astronomy

Dec. 23, 2015 Rise Set
Actual Time
Civil Twilight
Nautical Twilight
Astronomical Twilight
Moon
Length of Visible Light
Length of Day
Tomorrow will be .
, % of the Moon is Illuminated

Today's Extremes

State Highs State Lows

Community

WunderPhotos

Upload Photos

1,879,232 photos uploaded!

WunderBlogs® & News

Nearby

Air Quality

  Air Quality AQ Index Pollutant
Not available.

Snow Depth

Station Depth Elevation

Earthquake Activity

City Distance Mag. Time & Date
Minimum magnitude displayed is 2.5.

Coastal Water Temperatures

Place Temperature

Stations

Nearby Weather Stations

Station Location Temp. Windchill Dew Point Humidity Wind Precip. Elev Updated Type